sensor_id;sensor_type;location;lat;lon;timestamp;temperature;humidity
29731;DHT22;16639;51.488;0.152;2022-10-17T00:02:24;15.40;99.90
29731;DHT22;16639;51.488;0.152;2022-10-17T00:04:51;15.50;99.90
29731;DHT22;16639;51.488;0.152;2022-10-17T00:07:18;15.50;99.90
29731;DHT22;16639;51.488;0.152;2022-10-17T00:09:45;15.50;99.90
29731;DHT22;16639;51.488;0.152;2022-10-17T00:12:12;15.60;99.90
29731;DHT22;16639;51.488;0.152;2022-10-17T00:14:39;15.60;99.90
29731;DHT22;16639;51.488;0.152;2022-10-17T00:17:06;15.50;99.90
29731;DHT22;16639;51.488;0.152;2022-10-17T00:19:33;15.50;99.90
29731;DHT22;16639;51.488;0.152;2022-10-17T00:22:01;15.50;99.90
29731;DHT22;16639;51.488;0.152;2022-10-17T00:24:29;15.50;99.90
29731;DHT22;16639;51.488;0.152;2022-10-17T00:26:56;15.50;99.90
29731;DHT22;16639;51.488;0.152;2022-10-17T00:29:23;15.60;99.90
29731;DHT22;16639;51.488;0.152;2022-10-17T00:31:53;15.50;99.90
29731;DHT22;16639;51.488;0.152;2022-10-17T00:34:27;15.60;99.90
29731;DHT22;16639;51.488;0.152;2022-10-17T00:36:54;15.70;99.90
29731;DHT22;16639;51.488;0.152;2022-10-17T00:39:22;15.60;99.90
29731;DHT22;16639;51.488;0.152;2022-10-17T00:41:49;14.70;99.90
29731;DHT22;16639;51.488;0.152;2022-10-17T00:49:23;15.50;99.90
29731;DHT22;16639;51.488;0.152;2022-10-17T00:51:53;16.20;99.90
29731;DHT22;16639;51.488;0.152;2022-10-17T00:54:24;15.50;99.90
29731;DHT22;16639;51.488;0.152;2022-10-17T00:56:53;15.60;99.90
29731;DHT22;16639;51.488;0.152;2022-10-17T00:59:20;15.50;99.90
29731;DHT22;16639;51.488;0.152;2022-10-17T01:02:10;15.60;99.90
29731;DHT22;16639;51.488;0.152;2022-10-17T01:04:36;15.60;99.90
29731;DHT22;16639;51.488;0.152;2022-10-17T01:07:03;15.60;99.90
29731;DHT22;16639;51.488;0.152;2022-10-17T01:09:30;15.60;99.90
29731;DHT22;16639;51.488;0.152;2022-10-17T01:12:00;15.70;99.90
29731;DHT22;16639;51.488;0.152;2022-10-17T01:14:40;15.50;99.90
29731;DHT22;16639;51.488;0.152;2022-10-17T01:24:55;15.50;99.90
29731;DHT22;16639;51.488;0.152;2022-10-17T01:30:29;15.50;99.90
29731;DHT22;16639;51.488;0.152;2022-10-17T01:33:01;15.50;99.90
29731;DHT22;16639;51.488;0.152;2022-10-17T01:35:38;15.40;99.90
29731;DHT22;16639;51.488;0.152;2022-10-17T01:43:18;15.40;99.90
29731;DHT22;16639;51.488;0.152;2022-10-17T01:45:49;15.40;99.90
29731;DHT22;16639;51.488;0.152;2022-10-17T01:48:19;15.30;99.90
29731;DHT22;16639;51.488;0.152;2022-10-17T01:50:49;15.30;99.90
29731;DHT22;16639;51.488;0.152;2022-10-17T01:53:22;15.30;99.90
29731;DHT22;16639;51.488;0.152;2022-10-17T01:55:51;15.20;99.90
29731;DHT22;16639;51.488;0.152;2022-10-17T01:58:23;15.20;99.90
29731;DHT22;16639;51.488;0.152;2022-10-17T02:00:52;15.20;99.90
29731;DHT22;16639;51.488;0.152;2022-10-17T02:03:20;15.20;99.90
29731;DHT22;16639;51.488;0.152;2022-10-17T02:05:48;15.20;99.90
29731;DHT22;16639;51.488;0.152;2022-10-17T02:08:23;15.20;99.90
29731;DHT22;16639;51.488;0.152;2022-10-17T02:10:55;15.60;99.90
29731;DHT22;16639;51.488;0.152;2022-10-17T02:15:55;15.20;99.90
29731;DHT22;16639;51.488;0.152;2022-10-17T02:18:45;15.30;99.90
29731;DHT22;16639;51.488;0.152;2022-10-17T02:26:20;15.20;99.90
29731;DHT22;16639;51.488;0.152;2022-10-17T02:31:29;15.10;99.90
29731;DHT22;16639;51.488;0.152;2022-10-17T02:33:58;15.70;99.90
29731;DHT22;16639;51.488;0.152;2022-10-17T02:36:34;15.20;99.90
29731;DHT22;16639;51.488;0.152;2022-10-17T02:39:02;14.50;99.90
29731;DHT22;16639;51.488;0.152;2022-10-17T02:41:31;15.20;99.90
29731;DHT22;16639;51.488;0.152;2022-10-17T02:43:58;15.20;99.90
29731;DHT22;16639;51.488;0.152;2022-10-17T02:46:28;15.10;99.90
29731;DHT22;16639;51.488;0.152;2022-10-17T02:51:35;15.30;99.90
29731;DHT22;16639;51.488;0.152;2022-10-17T02:54:25;15.30;99.90
29731;DHT22;16639;51.488;0.152;2022-10-17T02:56:54;15.70;99.90
29731;DHT22;16639;51.488;0.152;2022-10-17T02:59:24;15.20;99.90
29731;DHT22;16639;51.488;0.152;2022-10-17T03:01:51;16.10;99.90
29731;DHT22;16639;51.488;0.152;2022-10-17T03:04:23;15.20;99.90
29731;DHT22;16639;51.488;0.152;2022-10-17T03:06:50;15.20;99.90
29731;DHT22;16639;51.488;0.152;2022-10-17T03:09:17;15.90;99.90
29731;DHT22;16639;51.488;0.152;2022-10-17T03:11:44;15.20;99.90
29731;DHT22;16639;51.488;0.152;2022-10-17T03:14:11;15.20;99.90
29731;DHT22;16639;51.488;0.152;2022-10-17T03:16:38;15.20;99.90
29731;DHT22;16639;51.488;0.152;2022-10-17T03:19:06;15.20;99.90
29731;DHT22;16639;51.488;0.152;2022-10-17T03:21:33;15.40;99.90
29731;DHT22;16639;51.488;0.152;2022-10-17T03:24:03;16.50;99.90
29731;DHT22;16639;51.488;0.152;2022-10-17T03:26:30;15.20;99.90
29731;DHT22;16639;51.488;0.152;2022-10-17T03:28:57;15.20;99.90
29731;DHT22;16639;51.488;0.152;2022-10-17T03:31:24;15.20;99.90
29731;DHT22;16639;51.488;0.152;2022-10-17T03:33:52;15.20;99.90
29731;DHT22;16639;51.488;0.152;2022-10-17T03:36:19;15.10;99.90
29731;DHT22;16639;51.488;0.152;2022-10-17T03:38:46;15.10;99.90
29731;DHT22;16639;51.488;0.152;2022-10-17T03:41:14;15.10;99.90
29731;DHT22;16639;51.488;0.152;2022-10-17T03:43:41;15.10;99.90
29731;DHT22;16639;51.488;0.152;2022-10-17T03:46:08;15.10;99.90
29731;DHT22;16639;51.488;0.152;2022-10-17T03:48:35;14.40;99.90
29731;DHT22;16639;51.488;0.152;2022-10-17T03:51:05;15.10;99.90
29731;DHT22;16639;51.488;0.152;2022-10-17T03:53:33;15.10;99.90
29731;DHT22;16639;51.488;0.152;2022-10-17T03:56:17;15.10;99.90
29731;DHT22;16639;51.488;0.152;2022-10-17T03:58:44;15.10;99.90
29731;DHT22;16639;51.488;0.152;2022-10-17T04:01:12;15.00;99.90
29731;DHT22;16639;51.488;0.152;2022-10-17T04:03:39;15.10;99.90
29731;DHT22;16639;51.488;0.152;2022-10-17T04:06:06;15.00;99.90
29731;DHT22;16639;51.488;0.152;2022-10-17T04:08:34;15.10;99.90
29731;DHT22;16639;51.488;0.152;2022-10-17T04:11:02;15.10;99.90
29731;DHT22;16639;51.488;0.152;2022-10-17T04:13:29;14.30;99.90
29731;DHT22;16639;51.488;0.152;2022-10-17T04:16:07;15.10;99.90
29731;DHT22;16639;51.488;0.152;2022-10-17T04:18:34;15.10;99.90
29731;DHT22;16639;51.488;0.152;2022-10-17T04:21:02;14.60;99.90
29731;DHT22;16639;51.488;0.152;2022-10-17T04:23:29;15.10;99.90
29731;DHT22;16639;51.488;0.152;2022-10-17T04:25:56;15.10;99.90
29731;DHT22;16639;51.488;0.152;2022-10-17T04:28:24;14.90;99.90
29731;DHT22;16639;51.488;0.152;2022-10-17T04:31:05;15.10;99.90
29731;DHT22;16639;51.488;0.152;2022-10-17T04:33:33;15.10;99.90
29731;DHT22;16639;51.488;0.152;2022-10-17T04:36:00;15.10;99.90
29731;DHT22;16639;51.488;0.152;2022-10-17T04:38:28;15.10;99.90
29731;DHT22;16639;51.488;0.152;2022-10-17T04:40:56;15.10;99.90
29731;DHT22;16639;51.488;0.152;2022-10-17T04:43:23;15.20;99.90
29731;DHT22;16639;51.488;0.152;2022-10-17T04:45:50;15.10;99.90
29731;DHT22;16639;51.488;0.152;2022-10-17T04:48:17;15.10;99.90
29731;DHT22;16639;51.488;0.152;2022-10-17T04:53:41;15.10;99.90
29731;DHT22;16639;51.488;0.152;2022-10-17T04:56:15;15.10;99.90
29731;DHT22;16639;51.488;0.152;2022-10-17T04:58:43;15.10;99.90
29731;DHT22;16639;51.488;0.152;2022-10-17T05:01:11;15.10;99.90
29731;DHT22;16639;51.488;0.152;2022-10-17T05:03:39;15.20;99.90
29731;DHT22;16639;51.488;0.152;2022-10-17T05:06:16;15.10;99.90
29731;DHT22;16639;51.488;0.152;2022-10-17T05:08:43;15.10;99.90
29731;DHT22;16639;51.488;0.152;2022-10-17T05:13:44;15.10;99.90
29731;DHT22;16639;51.488;0.152;2022-10-17T05:16:15;15.10;99.90
29731;DHT22;16639;51.488;0.152;2022-10-17T05:18:42;15.10;99.90
29731;DHT22;16639;51.488;0.152;2022-10-17T05:21:09;15.10;99.90
29731;DHT22;16639;51.488;0.152;2022-10-17T05:23:36;15.40;99.90
29731;DHT22;16639;51.488;0.152;2022-10-17T05:26:03;15.10;99.90
29731;DHT22;16639;51.488;0.152;2022-10-17T05:28:30;15.10;99.90
29731;DHT22;16639;51.488;0.152;2022-10-17T05:31:00;15.10;99.90
29731;DHT22;16639;51.488;0.152;2022-10-17T05:33:27;15.00;99.90
29731;DHT22;16639;51.488;0.152;2022-10-17T05:35:54;15.10;99.90
29731;DHT22;16639;51.488;0.152;2022-10-17T05:38:22;15.10;99.90
29731;DHT22;16639;51.488;0.152;2022-10-17T05:40:49;15.10;99.90
29731;DHT22;16639;51.488;0.152;2022-10-17T05:43:16;15.10;99.90
29731;DHT22;16639;51.488;0.152;2022-10-17T05:45:43;15.10;99.90
29731;DHT22;16639;51.488;0.152;2022-10-17T05:48:10;15.10;99.90
29731;DHT22;16639;51.488;0.152;2022-10-17T05:50:37;15.10;99.90
29731;DHT22;16639;51.488;0.152;2022-10-17T05:53:04;15.10;99.90
29731;DHT22;16639;51.488;0.152;2022-10-17T05:55:32;15.20;99.90
29731;DHT22;16639;51.488;0.152;2022-10-17T05:57:59;15.10;99.90
29731;DHT22;16639;51.488;0.152;2022-10-17T06:00:27;15.70;99.90
29731;DHT22;16639;51.488;0.152;2022-10-17T06:02:54;15.90;99.90
29731;DHT22;16639;51.488;0.152;2022-10-17T06:05:26;15.10;99.90
29731;DHT22;16639;51.488;0.152;2022-10-17T06:07:53;15.10;99.90
29731;DHT22;16639;51.488;0.152;2022-10-17T06:10:26;15.10;99.90
29731;DHT22;16639;51.488;0.152;2022-10-17T06:12:54;15.10;99.90
29731;DHT22;16639;51.488;0.152;2022-10-17T06:15:22;15.20;99.90
29731;DHT22;16639;51.488;0.152;2022-10-17T06:17:49;15.10;99.90
29731;DHT22;16639;51.488;0.152;2022-10-17T06:20:16;15.20;99.90
29731;DHT22;16639;51.488;0.152;2022-10-17T06:22:43;15.20;99.90
29731;DHT22;16639;51.488;0.152;2022-10-17T06:25:10;15.20;99.90
29731;DHT22;16639;51.488;0.152;2022-10-17T06:27:37;15.20;99.90
29731;DHT22;16639;51.488;0.152;2022-10-17T06:30:05;15.10;99.90
29731;DHT22;16639;51.488;0.152;2022-10-17T06:32:32;15.20;99.90
29731;DHT22;16639;51.488;0.152;2022-10-17T06:34:59;15.20;99.90
29731;DHT22;16639;51.488;0.152;2022-10-17T06:37:29;15.40;99.90
29731;DHT22;16639;51.488;0.152;2022-10-17T06:40:02;15.70;99.90
29731;DHT22;16639;51.488;0.152;2022-10-17T06:42:29;15.20;99.90
29731;DHT22;16639;51.488;0.152;2022-10-17T06:44:56;15.50;99.90
29731;DHT22;16639;51.488;0.152;2022-10-17T06:47:24;15.10;99.90
29731;DHT22;16639;51.488;0.152;2022-10-17T06:49:51;15.10;99.90
29731;DHT22;16639;51.488;0.152;2022-10-17T06:52:18;15.10;99.90
29731;DHT22;16639;51.488;0.152;2022-10-17T06:54:45;15.10;99.90
29731;DHT22;16639;51.488;0.152;2022-10-17T06:57:12;15.10;99.90
29731;DHT22;16639;51.488;0.152;2022-10-17T06:59:39;15.10;99.90
29731;DHT22;16639;51.488;0.152;2022-10-17T07:02:07;15.10;99.90
29731;DHT22;16639;51.488;0.152;2022-10-17T07:04:35;15.10;99.90
29731;DHT22;16639;51.488;0.152;2022-10-17T07:07:02;15.10;99.90
29731;DHT22;16639;51.488;0.152;2022-10-17T07:09:30;15.10;99.90
29731;DHT22;16639;51.488;0.152;2022-10-17T07:11:58;15.10;99.90
29731;DHT22;16639;51.488;0.152;2022-10-17T07:14:25;15.20;99.90
29731;DHT22;16639;51.488;0.152;2022-10-17T07:16:58;15.10;99.90
29731;DHT22;16639;51.488;0.152;2022-10-17T07:19:25;14.70;99.90
29731;DHT22;16639;51.488;0.152;2022-10-17T07:21:55;15.10;99.90
29731;DHT22;16639;51.488;0.152;2022-10-17T07:24:22;15.10;99.90
29731;DHT22;16639;51.488;0.152;2022-10-17T07:26:49;15.20;99.90
29731;DHT22;16639;51.488;0.152;2022-10-17T07:29:16;15.20;99.90
29731;DHT22;16639;51.488;0.152;2022-10-17T07:31:44;15.10;99.90
29731;DHT22;16639;51.488;0.152;2022-10-17T07:34:14;15.10;99.90
29731;DHT22;16639;51.488;0.152;2022-10-17T07:36:41;15.20;99.90
29731;DHT22;16639;51.488;0.152;2022-10-17T07:39:08;15.20;99.90
29731;DHT22;16639;51.488;0.152;2022-10-17T07:41:35;15.20;99.90
29731;DHT22;16639;51.488;0.152;2022-10-17T07:44:03;15.90;99.90
29731;DHT22;16639;51.488;0.152;2022-10-17T07:46:30;15.20;99.90
29731;DHT22;16639;51.488;0.152;2022-10-17T07:48:57;15.20;99.90
29731;DHT22;16639;51.488;0.152;2022-10-17T07:51:24;15.00;99.90
29731;DHT22;16639;51.488;0.152;2022-10-17T07:53:52;15.20;99.90
29731;DHT22;16639;51.488;0.152;2022-10-17T07:56:19;14.90;99.90
29731;DHT22;16639;51.488;0.152;2022-10-17T07:58:50;15.20;99.90
29731;DHT22;16639;51.488;0.152;2022-10-17T08:01:18;15.10;99.90
29731;DHT22;16639;51.488;0.152;2022-10-17T08:03:45;15.20;99.90
29731;DHT22;16639;51.488;0.152;2022-10-17T08:06:14;15.20;99.90
29731;DHT22;16639;51.488;0.152;2022-10-17T08:08:41;14.70;99.90
29731;DHT22;16639;51.488;0.152;2022-10-17T08:11:10;15.20;99.90
29731;DHT22;16639;51.488;0.152;2022-10-17T08:13:37;15.10;99.90
29731;DHT22;16639;51.488;0.152;2022-10-17T08:16:06;15.10;99.90
29731;DHT22;16639;51.488;0.152;2022-10-17T08:18:34;15.30;99.90
29731;DHT22;16639;51.488;0.152;2022-10-17T08:21:03;15.20;99.90
29731;DHT22;16639;51.488;0.152;2022-10-17T08:23:32;15.20;99.90
29731;DHT22;16639;51.488;0.152;2022-10-17T08:25:59;15.20;99.90
29731;DHT22;16639;51.488;0.152;2022-10-17T08:28:27;16.00;99.90
29731;DHT22;16639;51.488;0.152;2022-10-17T08:31:01;15.20;99.90
29731;DHT22;16639;51.488;0.152;2022-10-17T08:33:29;15.20;99.90
29731;DHT22;16639;51.488;0.152;2022-10-17T08:35:57;15.20;99.90
29731;DHT22;16639;51.488;0.152;2022-10-17T08:38:24;15.30;99.90
29731;DHT22;16639;51.488;0.152;2022-10-17T08:40:54;15.30;99.90
29731;DHT22;16639;51.488;0.152;2022-10-17T08:46:09;15.30;99.90
29731;DHT22;16639;51.488;0.152;2022-10-17T08:48:37;15.30;99.90
29731;DHT22;16639;51.488;0.152;2022-10-17T08:51:12;15.30;99.90
29731;DHT22;16639;51.488;0.152;2022-10-17T08:54:00;15.40;99.90
29731;DHT22;16639;51.488;0.152;2022-10-17T08:56:32;15.40;99.90
29731;DHT22;16639;51.488;0.152;2022-10-17T08:59:16;15.50;99.90
29731;DHT22;16639;51.488;0.152;2022-10-17T09:04:41;15.50;99.90
29731;DHT22;16639;51.488;0.152;2022-10-17T09:09:49;15.60;99.90
29731;DHT22;16639;51.488;0.152;2022-10-17T09:12:34;15.60;99.90
29731;DHT22;16639;51.488;0.152;2022-10-17T09:17:46;15.70;99.90
29731;DHT22;16639;51.488;0.152;2022-10-17T09:20:19;15.70;99.90
29731;DHT22;16639;51.488;0.152;2022-10-17T09:23:10;15.70;99.90
29731;DHT22;16639;51.488;0.152;2022-10-17T09:25:40;15.70;99.90
29731;DHT22;16639;51.488;0.152;2022-10-17T09:30:45;15.60;99.90
29731;DHT22;16639;51.488;0.152;2022-10-17T09:33:19;15.70;99.90
29731;DHT22;16639;51.488;0.152;2022-10-17T09:36:03;15.60;99.90
29731;DHT22;16639;51.488;0.152;2022-10-17T09:38:40;15.60;99.90
29731;DHT22;16639;51.488;0.152;2022-10-17T09:41:12;15.60;99.90
29731;DHT22;16639;51.488;0.152;2022-10-17T09:46:41;15.60;99.90
29731;DHT22;16639;51.488;0.152;2022-10-17T09:49:11;15.60;99.90
29731;DHT22;16639;51.488;0.152;2022-10-17T09:51:43;15.60;99.90
29731;DHT22;16639;51.488;0.152;2022-10-17T09:54:22;15.80;99.90
29731;DHT22;16639;51.488;0.152;2022-10-17T09:57:00;15.60;99.90
29731;DHT22;16639;51.488;0.152;2022-10-17T09:59:31;15.50;99.90
29731;DHT22;16639;51.488;0.152;2022-10-17T10:04:34;15.50;99.90
29731;DHT22;16639;51.488;0.152;2022-10-17T10:07:22;15.50;99.90
29731;DHT22;16639;51.488;0.152;2022-10-17T10:09:55;15.50;99.90
29731;DHT22;16639;51.488;0.152;2022-10-17T10:12:24;15.50;99.90
29731;DHT22;16639;51.488;0.152;2022-10-17T10:14:52;15.50;99.90
29731;DHT22;16639;51.488;0.152;2022-10-17T10:17:26;15.60;99.90
29731;DHT22;16639;51.488;0.152;2022-10-17T10:19:53;15.60;99.90
29731;DHT22;16639;51.488;0.152;2022-10-17T10:22:21;15.60;99.90
29731;DHT22;16639;51.488;0.152;2022-10-17T10:27:33;15.60;99.90
29731;DHT22;16639;51.488;0.152;2022-10-17T10:30:00;15.50;99.90
29731;DHT22;16639;51.488;0.152;2022-10-17T10:32:29;15.70;99.90
29731;DHT22;16639;51.488;0.152;2022-10-17T10:34:59;15.60;99.90
29731;DHT22;16639;51.488;0.152;2022-10-17T10:40:04;15.60;99.90
29731;DHT22;16639;51.488;0.152;2022-10-17T10:45:01;15.60;99.90
29731;DHT22;16639;51.488;0.152;2022-10-17T10:47:29;15.60;99.90
29731;DHT22;16639;51.488;0.152;2022-10-17T10:50:17;15.60;99.90
29731;DHT22;16639;51.488;0.152;2022-10-17T10:52:51;15.80;99.90
29731;DHT22;16639;51.488;0.152;2022-10-17T10:57:54;15.00;99.90
29731;DHT22;16639;51.488;0.152;2022-10-17T11:00:23;17.40;99.90
29731;DHT22;16639;51.488;0.152;2022-10-17T11:02:53;15.20;99.90
29731;DHT22;16639;51.488;0.152;2022-10-17T11:08:43;16.00;99.90
29731;DHT22;16639;51.488;0.152;2022-10-17T11:18:55;16.00;99.90
29731;DHT22;16639;51.488;0.152;2022-10-17T11:24:23;16.10;99.90
29731;DHT22;16639;51.488;0.152;2022-10-17T11:26:55;16.20;99.90
29731;DHT22;16639;51.488;0.152;2022-10-17T11:29:28;16.10;99.90
29731;DHT22;16639;51.488;0.152;2022-10-17T11:31:57;16.20;99.90
29731;DHT22;16639;51.488;0.152;2022-10-17T11:34:26;16.20;99.90
29731;DHT22;16639;51.488;0.152;2022-10-17T11:36:58;16.20;99.90
29731;DHT22;16639;51.488;0.152;2022-10-17T11:42:09;16.30;99.90
29731;DHT22;16639;51.488;0.152;2022-10-17T11:44:38;16.20;99.90
29731;DHT22;16639;51.488;0.152;2022-10-17T11:52:59;16.20;99.90
29731;DHT22;16639;51.488;0.152;2022-10-17T11:55:28;16.40;99.90
29731;DHT22;16639;51.488;0.152;2022-10-17T12:05:39;16.90;99.90
29731;DHT22;16639;51.488;0.152;2022-10-17T12:08:15;16.50;99.90
29731;DHT22;16639;51.488;0.152;2022-10-17T12:15:54;16.60;99.90
29731;DHT22;16639;51.488;0.152;2022-10-17T12:18:24;16.50;99.90
29731;DHT22;16639;51.488;0.152;2022-10-17T12:20:56;16.60;99.90
29731;DHT22;16639;51.488;0.152;2022-10-17T12:23:25;16.60;99.90
29731;DHT22;16639;51.488;0.152;2022-10-17T12:25:54;16.60;99.90
29731;DHT22;16639;51.488;0.152;2022-10-17T12:28:42;16.50;99.90
29731;DHT22;16639;51.488;0.152;2022-10-17T12:33:53;16.60;99.90
29731;DHT22;16639;51.488;0.152;2022-10-17T12:38:49;16.70;99.90
29731;DHT22;16639;51.488;0.152;2022-10-17T12:41:51;16.70;99.90
29731;DHT22;16639;51.488;0.152;2022-10-17T12:46:42;16.80;99.90
29731;DHT22;16639;51.488;0.152;2022-10-17T12:49:52;16.80;99.90
29731;DHT22;16639;51.488;0.152;2022-10-17T12:54:43;16.80;99.90
29731;DHT22;16639;51.488;0.152;2022-10-17T13:02:38;16.90;99.90
29731;DHT22;16639;51.488;0.152;2022-10-17T13:05:07;16.90;99.90
29731;DHT22;16639;51.488;0.152;2022-10-17T13:07:37;16.90;99.90
29731;DHT22;16639;51.488;0.152;2022-10-17T13:10:14;16.90;99.90
29731;DHT22;16639;51.488;0.152;2022-10-17T13:12:44;16.90;99.90
29731;DHT22;16639;51.488;0.152;2022-10-17T13:15:11;16.80;99.90
29731;DHT22;16639;51.488;0.152;2022-10-17T13:17:42;16.80;99.90
29731;DHT22;16639;51.488;0.152;2022-10-17T13:20:19;16.70;99.90
29731;DHT22;16639;51.488;0.152;2022-10-17T13:22:55;16.70;99.90
29731;DHT22;16639;51.488;0.152;2022-10-17T13:25:23;16.60;99.90
29731;DHT22;16639;51.488;0.152;2022-10-17T13:27:58;17.20;99.90
29731;DHT22;16639;51.488;0.152;2022-10-17T13:30:29;16.60;99.90
29731;DHT22;16639;51.488;0.152;2022-10-17T13:32:58;16.60;99.90
29731;DHT22;16639;51.488;0.152;2022-10-17T13:35:27;16.60;99.90
29731;DHT22;16639;51.488;0.152;2022-10-17T13:38:15;16.50;99.90
29731;DHT22;16639;51.488;0.152;2022-10-17T13:40:42;16.60;99.90
29731;DHT22;16639;51.488;0.152;2022-10-17T13:43:17;16.60;99.90
29731;DHT22;16639;51.488;0.152;2022-10-17T13:45:48;16.50;99.90
29731;DHT22;16639;51.488;0.152;2022-10-17T13:48:17;16.60;99.90
29731;DHT22;16639;51.488;0.152;2022-10-17T13:50:46;16.60;99.90
29731;DHT22;16639;51.488;0.152;2022-10-17T13:53:19;16.60;99.90
29731;DHT22;16639;51.488;0.152;2022-10-17T13:55:53;16.60;99.90
29731;DHT22;16639;51.488;0.152;2022-10-17T13:58:42;16.50;99.90
29731;DHT22;16639;51.488;0.152;2022-10-17T14:01:10;16.50;99.90
29731;DHT22;16639;51.488;0.152;2022-10-17T14:03:37;16.50;99.90
29731;DHT22;16639;51.488;0.152;2022-10-17T14:06:16;16.50;99.90
29731;DHT22;16639;51.488;0.152;2022-10-17T14:11:22;16.50;99.90
29731;DHT22;16639;51.488;0.152;2022-10-17T14:13:50;16.50;99.90
29731;DHT22;16639;51.488;0.152;2022-10-17T14:16:17;16.50;99.90
29731;DHT22;16639;51.488;0.152;2022-10-17T14:18:48;16.50;99.90
29731;DHT22;16639;51.488;0.152;2022-10-17T14:21:20;16.50;99.90
29731;DHT22;16639;51.488;0.152;2022-10-17T14:24:11;16.50;99.90
29731;DHT22;16639;51.488;0.152;2022-10-17T14:26:45;16.50;99.90
29731;DHT22;16639;51.488;0.152;2022-10-17T14:29:24;16.50;99.90
29731;DHT22;16639;51.488;0.152;2022-10-17T14:32:02;16.50;99.90
29731;DHT22;16639;51.488;0.152;2022-10-17T14:34:32;16.50;99.90
29731;DHT22;16639;51.488;0.152;2022-10-17T14:36:59;16.60;99.90
29731;DHT22;16639;51.488;0.152;2022-10-17T14:39:27;16.60;99.90
29731;DHT22;16639;51.488;0.152;2022-10-17T14:41:55;16.60;99.90
29731;DHT22;16639;51.488;0.152;2022-10-17T14:44:28;16.60;99.90
29731;DHT22;16639;51.488;0.152;2022-10-17T14:46:58;16.60;99.90
29731;DHT22;16639;51.488;0.152;2022-10-17T14:49:32;16.60;99.90
29731;DHT22;16639;51.488;0.152;2022-10-17T14:54:45;16.70;99.90
29731;DHT22;16639;51.488;0.152;2022-10-17T14:57:17;16.80;99.90
29731;DHT22;16639;51.488;0.152;2022-10-17T14:59:44;16.80;99.90
29731;DHT22;16639;51.488;0.152;2022-10-17T15:02:24;16.90;99.90
29731;DHT22;16639;51.488;0.152;2022-10-17T15:04:52;16.80;99.90
29731;DHT22;16639;51.488;0.152;2022-10-17T15:07:19;16.90;99.90
29731;DHT22;16639;51.488;0.152;2022-10-17T15:09:47;16.80;99.90
29731;DHT22;16639;51.488;0.152;2022-10-17T15:12:19;16.90;99.90
29731;DHT22;16639;51.488;0.152;2022-10-17T15:14:46;16.80;99.90
29731;DHT22;16639;51.488;0.152;2022-10-17T15:17:15;16.80;99.90
29731;DHT22;16639;51.488;0.152;2022-10-17T15:19:44;16.80;99.90
29731;DHT22;16639;51.488;0.152;2022-10-17T15:22:11;16.80;99.90
29731;DHT22;16639;51.488;0.152;2022-10-17T15:24:38;16.90;99.90
29731;DHT22;16639;51.488;0.152;2022-10-17T15:27:13;16.80;99.90
29731;DHT22;16639;51.488;0.152;2022-10-17T15:29:40;16.80;99.90
29731;DHT22;16639;51.488;0.152;2022-10-17T15:32:07;16.90;99.90
29731;DHT22;16639;51.488;0.152;2022-10-17T15:34:34;16.40;99.90
29731;DHT22;16639;51.488;0.152;2022-10-17T15:37:01;16.70;99.90
29731;DHT22;16639;51.488;0.152;2022-10-17T15:39:29;16.70;99.90
29731;DHT22;16639;51.488;0.152;2022-10-17T15:41:56;17.00;99.90
29731;DHT22;16639;51.488;0.152;2022-10-17T15:44:24;16.60;99.90
29731;DHT22;16639;51.488;0.152;2022-10-17T15:46:52;16.60;99.90
29731;DHT22;16639;51.488;0.152;2022-10-17T15:49:19;16.20;99.90
29731;DHT22;16639;51.488;0.152;2022-10-17T15:51:46;16.50;99.90
29731;DHT22;16639;51.488;0.152;2022-10-17T15:54:21;16.60;99.90
29731;DHT22;16639;51.488;0.152;2022-10-17T15:56:50;16.50;99.90
29731;DHT22;16639;51.488;0.152;2022-10-17T15:59:19;17.10;99.90
29731;DHT22;16639;51.488;0.152;2022-10-17T16:01:48;16.50;99.90
29731;DHT22;16639;51.488;0.152;2022-10-17T16:04:15;16.60;99.90
29731;DHT22;16639;51.488;0.152;2022-10-17T16:06:44;16.60;99.90
29731;DHT22;16639;51.488;0.152;2022-10-17T16:09:11;16.50;99.90
29731;DHT22;16639;51.488;0.152;2022-10-17T16:11:40;16.40;99.90
29731;DHT22;16639;51.488;0.152;2022-10-17T16:14:11;16.40;99.90
29731;DHT22;16639;51.488;0.152;2022-10-17T16:16:38;16.40;99.90
29731;DHT22;16639;51.488;0.152;2022-10-17T16:19:06;16.40;99.90
29731;DHT22;16639;51.488;0.152;2022-10-17T16:21:34;16.30;99.90
29731;DHT22;16639;51.488;0.152;2022-10-17T16:24:01;16.30;99.90
29731;DHT22;16639;51.488;0.152;2022-10-17T16:26:29;16.30;99.90
29731;DHT22;16639;51.488;0.152;2022-10-17T16:28:56;16.20;99.90
29731;DHT22;16639;51.488;0.152;2022-10-17T16:31:25;16.20;99.90
29731;DHT22;16639;51.488;0.152;2022-10-17T16:33:54;16.20;99.90
29731;DHT22;16639;51.488;0.152;2022-10-17T16:36:22;16.10;99.90
29731;DHT22;16639;51.488;0.152;2022-10-17T16:38:49;16.10;99.90
29731;DHT22;16639;51.488;0.152;2022-10-17T16:41:21;16.00;99.90
29731;DHT22;16639;51.488;0.152;2022-10-17T16:43:49;15.90;99.90
29731;DHT22;16639;51.488;0.152;2022-10-17T16:46:17;15.90;99.90
29731;DHT22;16639;51.488;0.152;2022-10-17T16:48:44;15.90;99.90
29731;DHT22;16639;51.488;0.152;2022-10-17T16:51:12;15.80;99.90
29731;DHT22;16639;51.488;0.152;2022-10-17T16:53:39;15.80;99.90
29731;DHT22;16639;51.488;0.152;2022-10-17T16:56:10;16.70;99.90
29731;DHT22;16639;51.488;0.152;2022-10-17T16:58:38;15.70;99.90
29731;DHT22;16639;51.488;0.152;2022-10-17T17:01:07;15.60;99.90
29731;DHT22;16639;51.488;0.152;2022-10-17T17:03:38;15.60;99.90
29731;DHT22;16639;51.488;0.152;2022-10-17T17:06:05;15.60;99.90
29731;DHT22;16639;51.488;0.152;2022-10-17T17:08:33;15.60;99.90
29731;DHT22;16639;51.488;0.152;2022-10-17T17:11:00;15.50;99.90
29731;DHT22;16639;51.488;0.152;2022-10-17T17:13:27;15.50;99.90
29731;DHT22;16639;51.488;0.152;2022-10-17T17:16:05;15.50;99.90
29731;DHT22;16639;51.488;0.152;2022-10-17T17:18:33;15.50;99.90
29731;DHT22;16639;51.488;0.152;2022-10-17T17:21:01;15.40;99.90
29731;DHT22;16639;51.488;0.152;2022-10-17T17:23:28;15.40;99.90
29731;DHT22;16639;51.488;0.152;2022-10-17T17:25:59;15.30;99.90
29731;DHT22;16639;51.488;0.152;2022-10-17T17:28:27;15.30;99.90
29731;DHT22;16639;51.488;0.152;2022-10-17T17:30:54;15.30;99.90
29731;DHT22;16639;51.488;0.152;2022-10-17T17:33:22;15.20;99.90
29731;DHT22;16639;51.488;0.152;2022-10-17T17:35:56;15.20;99.90
29731;DHT22;16639;51.488;0.152;2022-10-17T17:38:23;15.10;99.90
29731;DHT22;16639;51.488;0.152;2022-10-17T17:40:50;15.10;99.90
29731;DHT22;16639;51.488;0.152;2022-10-17T17:43:18;15.10;99.90
29731;DHT22;16639;51.488;0.152;2022-10-17T17:45:45;15.00;99.90
29731;DHT22;16639;51.488;0.152;2022-10-17T17:48:12;15.00;99.90
29731;DHT22;16639;51.488;0.152;2022-10-17T17:50:40;15.00;99.90
29731;DHT22;16639;51.488;0.152;2022-10-17T17:53:07;15.00;99.90